sensor_id;sensor_type;location;lat;lon;timestamp;temperature;humidity
69084;SHT31;56185;48.526;9.044;2022-10-10T00:00:55;13.42;77.71
69084;SHT31;56185;48.526;9.044;2022-10-10T00:03:20;13.36;77.71
69084;SHT31;56185;48.526;9.044;2022-10-10T00:05:45;13.42;77.90
69084;SHT31;56185;48.526;9.044;2022-10-10T00:08:11;13.49;77.75
69084;SHT31;56185;48.526;9.044;2022-10-10T00:10:36;13.46;77.69
69084;SHT31;56185;48.526;9.044;2022-10-10T00:13:03;13.38;77.93
69084;SHT31;56185;48.526;9.044;2022-10-10T00:15:29;13.56;77.11
69084;SHT31;56185;48.526;9.044;2022-10-10T00:17:54;13.59;76.99
69084;SHT31;56185;48.526;9.044;2022-10-10T00:20:20;13.65;76.82
69084;SHT31;56185;48.526;9.044;2022-10-10T00:22:46;13.56;77.23
69084;SHT31;56185;48.526;9.044;2022-10-10T00:25:11;13.52;77.33
69084;SHT31;56185;48.526;9.044;2022-10-10T00:27:37;13.52;77.27
69084;SHT31;56185;48.526;9.044;2022-10-10T00:30:05;13.49;77.51
69084;SHT31;56185;48.526;9.044;2022-10-10T00:32:31;13.66;76.86
69084;SHT31;56185;48.526;9.044;2022-10-10T00:34:56;13.69;76.69
69084;SHT31;56185;48.526;9.044;2022-10-10T00:37:21;13.62;77.42
69084;SHT31;56185;48.526;9.044;2022-10-10T00:39:47;13.47;77.58
69084;SHT31;56185;48.526;9.044;2022-10-10T00:42:14;13.35;78.32
69084;SHT31;56185;48.526;9.044;2022-10-10T00:44:41;13.39;78.13
69084;SHT31;56185;48.526;9.044;2022-10-10T00:47:07;13.40;77.91
69084;SHT31;56185;48.526;9.044;2022-10-10T00:49:35;13.52;77.67
69084;SHT31;56185;48.526;9.044;2022-10-10T00:52:03;13.46;78.02
69084;SHT31;56185;48.526;9.044;2022-10-10T00:54:31;13.47;77.88
69084;SHT31;56185;48.526;9.044;2022-10-10T00:56:59;13.39;78.07
69084;SHT31;56185;48.526;9.044;2022-10-10T00:59:30;13.45;77.78
69084;SHT31;56185;48.526;9.044;2022-10-10T01:01:56;13.35;78.26
69084;SHT31;56185;48.526;9.044;2022-10-10T01:06:53;13.42;77.93
69084;SHT31;56185;48.526;9.044;2022-10-10T01:09:18;13.47;77.71
69084;SHT31;56185;48.526;9.044;2022-10-10T01:11:50;13.40;77.56
69084;SHT31;56185;48.526;9.044;2022-10-10T01:14:23;13.47;77.11
69084;SHT31;56185;48.526;9.044;2022-10-10T01:25:31;13.28;78.18
69084;SHT31;56185;48.526;9.044;2022-10-10T01:28:21;13.25;78.06
69084;SHT31;56185;48.526;9.044;2022-10-10T01:30:48;13.29;78.13
69084;SHT31;56185;48.526;9.044;2022-10-10T01:33:17;13.23;78.38
69084;SHT31;56185;48.526;9.044;2022-10-10T01:35:53;13.26;78.24
69084;SHT31;56185;48.526;9.044;2022-10-10T01:38:29;13.34;77.87
69084;SHT31;56185;48.526;9.044;2022-10-10T01:43:26;13.25;77.98
69084;SHT31;56185;48.526;9.044;2022-10-10T01:45:52;13.32;77.68
69084;SHT31;56185;48.526;9.044;2022-10-10T01:48:24;13.25;77.80
69084;SHT31;56185;48.526;9.044;2022-10-10T01:51:43;13.22;78.16
69084;SHT31;56185;48.526;9.044;2022-10-10T02:01:36;13.11;78.89
69084;SHT31;56185;48.526;9.044;2022-10-10T02:04:19;13.11;79.01
69084;SHT31;56185;48.526;9.044;2022-10-10T02:06:51;13.09;78.88
69084;SHT31;56185;48.526;9.044;2022-10-10T02:09:30;13.22;78.51
69084;SHT31;56185;48.526;9.044;2022-10-10T02:11:59;13.11;78.46
69084;SHT31;56185;48.526;9.044;2022-10-10T02:14:29;13.12;78.39
69084;SHT31;56185;48.526;9.044;2022-10-10T02:16:56;13.09;78.45
69084;SHT31;56185;48.526;9.044;2022-10-10T02:19:23;13.01;78.88
69084;SHT31;56185;48.526;9.044;2022-10-10T02:21:50;13.07;78.66
69084;SHT31;56185;48.526;9.044;2022-10-10T02:24:18;13.05;78.74
69084;SHT31;56185;48.526;9.044;2022-10-10T02:26:47;12.97;78.94
69084;SHT31;56185;48.526;9.044;2022-10-10T02:29:19;12.94;79.19
69084;SHT31;56185;48.526;9.044;2022-10-10T02:32:03;12.91;79.21
69084;SHT31;56185;48.526;9.044;2022-10-10T02:34:34;12.92;79.00
69084;SHT31;56185;48.526;9.044;2022-10-10T02:37:04;13.02;78.75
69084;SHT31;56185;48.526;9.044;2022-10-10T02:39:32;12.98;78.69
69084;SHT31;56185;48.526;9.044;2022-10-10T02:41:59;13.05;78.50
69084;SHT31;56185;48.526;9.044;2022-10-10T02:44:25;12.94;78.76
69084;SHT31;56185;48.526;9.044;2022-10-10T02:46:50;12.95;78.69
69084;SHT31;56185;48.526;9.044;2022-10-10T02:49:25;12.92;78.92
69084;SHT31;56185;48.526;9.044;2022-10-10T02:51:51;12.95;78.80
69084;SHT31;56185;48.526;9.044;2022-10-10T02:54:16;12.89;78.91
69084;SHT31;56185;48.526;9.044;2022-10-10T02:56:42;12.87;79.29
69084;SHT31;56185;48.526;9.044;2022-10-10T02:59:07;12.94;78.92
69084;SHT31;56185;48.526;9.044;2022-10-10T03:01:32;12.85;79.21
69084;SHT31;56185;48.526;9.044;2022-10-10T03:03:58;12.84;79.33
69084;SHT31;56185;48.526;9.044;2022-10-10T03:06:23;12.85;79.47
69084;SHT31;56185;48.526;9.044;2022-10-10T03:08:48;12.91;79.26
69084;SHT31;56185;48.526;9.044;2022-10-10T03:11:13;12.97;78.96
69084;SHT31;56185;48.526;9.044;2022-10-10T03:13:39;12.87;79.35
69084;SHT31;56185;48.526;9.044;2022-10-10T03:16:04;12.84;79.51
69084;SHT31;56185;48.526;9.044;2022-10-10T03:18:29;12.87;79.28
69084;SHT31;56185;48.526;9.044;2022-10-10T03:20:55;12.80;79.63
69084;SHT31;56185;48.526;9.044;2022-10-10T03:23:21;12.88;79.13
69084;SHT31;56185;48.526;9.044;2022-10-10T03:25:46;12.87;79.31
69084;SHT31;56185;48.526;9.044;2022-10-10T03:28:12;12.84;79.28
69084;SHT31;56185;48.526;9.044;2022-10-10T03:30:38;12.91;78.89
69084;SHT31;56185;48.526;9.044;2022-10-10T03:33:04;12.89;79.22
69084;SHT31;56185;48.526;9.044;2022-10-10T03:35:30;12.80;79.45
69084;SHT31;56185;48.526;9.044;2022-10-10T03:37:56;12.87;79.34
69084;SHT31;56185;48.526;9.044;2022-10-10T03:40:21;12.84;79.32
69084;SHT31;56185;48.526;9.044;2022-10-10T03:42:47;12.84;79.27
69084;SHT31;56185;48.526;9.044;2022-10-10T03:45:12;12.80;79.44
69084;SHT31;56185;48.526;9.044;2022-10-10T03:47:37;12.85;79.45
69084;SHT31;56185;48.526;9.044;2022-10-10T03:50:03;12.80;79.40
69084;SHT31;56185;48.526;9.044;2022-10-10T03:52:28;12.76;79.62
69084;SHT31;56185;48.526;9.044;2022-10-10T03:54:54;12.61;80.28
69084;SHT31;56185;48.526;9.044;2022-10-10T03:57:19;12.78;79.80
69084;SHT31;56185;48.526;9.044;2022-10-10T03:59:44;12.69;80.03
69084;SHT31;56185;48.526;9.044;2022-10-10T04:02:09;12.65;79.91
69084;SHT31;56185;48.526;9.044;2022-10-10T04:04:34;12.58;80.30
69084;SHT31;56185;48.526;9.044;2022-10-10T04:07:00;12.56;80.50
69084;SHT31;56185;48.526;9.044;2022-10-10T04:09:25;12.58;80.27
69084;SHT31;56185;48.526;9.044;2022-10-10T04:11:50;12.64;79.91
69084;SHT31;56185;48.526;9.044;2022-10-10T04:14:15;12.48;80.50
69084;SHT31;56185;48.526;9.044;2022-10-10T04:16:41;12.40;80.79
69084;SHT31;56185;48.526;9.044;2022-10-10T04:19:06;12.29;81.04
69084;SHT31;56185;48.526;9.044;2022-10-10T04:21:31;12.40;80.83
69084;SHT31;56185;48.526;9.044;2022-10-10T04:23:56;12.36;80.62
69084;SHT31;56185;48.526;9.044;2022-10-10T04:26:22;12.19;81.44
69084;SHT31;56185;48.526;9.044;2022-10-10T04:28:47;12.16;81.33
69084;SHT31;56185;48.526;9.044;2022-10-10T04:31:13;12.25;81.03
69084;SHT31;56185;48.526;9.044;2022-10-10T04:33:38;12.26;80.70
69084;SHT31;56185;48.526;9.044;2022-10-10T04:36:03;12.26;80.87
69084;SHT31;56185;48.526;9.044;2022-10-10T04:38:29;12.20;80.91
69084;SHT31;56185;48.526;9.044;2022-10-10T04:40:54;12.18;81.05
69084;SHT31;56185;48.526;9.044;2022-10-10T04:43:19;12.30;80.35
69084;SHT31;56185;48.526;9.044;2022-10-10T04:45:45;12.13;80.85
69084;SHT31;56185;48.526;9.044;2022-10-10T04:48:10;12.02;81.31
69084;SHT31;56185;48.526;9.044;2022-10-10T04:50:35;11.89;81.62
69084;SHT31;56185;48.526;9.044;2022-10-10T04:53:01;11.99;81.25
69084;SHT31;56185;48.526;9.044;2022-10-10T04:55:26;12.03;81.02
69084;SHT31;56185;48.526;9.044;2022-10-10T04:57:51;12.12;81.02
69084;SHT31;56185;48.526;9.044;2022-10-10T05:00:17;11.96;81.51
69084;SHT31;56185;48.526;9.044;2022-10-10T05:02:42;11.92;81.84
69084;SHT31;56185;48.526;9.044;2022-10-10T05:05:08;11.83;82.20
69084;SHT31;56185;48.526;9.044;2022-10-10T05:07:33;11.95;81.75
69084;SHT31;56185;48.526;9.044;2022-10-10T05:09:58;11.99;81.66
69084;SHT31;56185;48.526;9.044;2022-10-10T05:12:23;11.86;82.35
69084;SHT31;56185;48.526;9.044;2022-10-10T05:14:49;12.00;81.89
69084;SHT31;56185;48.526;9.044;2022-10-10T05:17:14;11.92;81.95
69084;SHT31;56185;48.526;9.044;2022-10-10T05:19:39;12.02;81.76
69084;SHT31;56185;48.526;9.044;2022-10-10T05:22:04;11.96;81.98
69084;SHT31;56185;48.526;9.044;2022-10-10T05:24:30;11.95;82.33
69084;SHT31;56185;48.526;9.044;2022-10-10T05:26:55;12.06;81.60
69084;SHT31;56185;48.526;9.044;2022-10-10T05:29:20;11.98;82.61
69084;SHT31;56185;48.526;9.044;2022-10-10T05:31:46;12.25;81.85
69084;SHT31;56185;48.526;9.044;2022-10-10T05:34:12;12.22;81.64
69084;SHT31;56185;48.526;9.044;2022-10-10T05:36:39;12.16;81.62
69084;SHT31;56185;48.526;9.044;2022-10-10T05:39:04;12.16;81.71
69084;SHT31;56185;48.526;9.044;2022-10-10T05:41:29;12.19;81.72
69084;SHT31;56185;48.526;9.044;2022-10-10T05:43:54;12.13;82.26
69084;SHT31;56185;48.526;9.044;2022-10-10T05:46:20;12.15;82.71
69084;SHT31;56185;48.526;9.044;2022-10-10T05:48:45;12.23;81.73
69084;SHT31;56185;48.526;9.044;2022-10-10T05:51:10;12.16;82.16
69084;SHT31;56185;48.526;9.044;2022-10-10T05:53:35;12.09;82.40
69084;SHT31;56185;48.526;9.044;2022-10-10T05:56:01;12.05;82.93
69084;SHT31;56185;48.526;9.044;2022-10-10T05:58:26;11.99;82.88
69084;SHT31;56185;48.526;9.044;2022-10-10T06:00:51;11.90;83.37
69084;SHT31;56185;48.526;9.044;2022-10-10T06:03:17;12.08;82.40
69084;SHT31;56185;48.526;9.044;2022-10-10T06:05:44;12.09;82.95
69084;SHT31;56185;48.526;9.044;2022-10-10T06:08:10;12.08;82.44
69084;SHT31;56185;48.526;9.044;2022-10-10T06:10:37;12.12;82.87
69084;SHT31;56185;48.526;9.044;2022-10-10T06:13:03;12.06;82.73
69084;SHT31;56185;48.526;9.044;2022-10-10T06:15:28;11.95;83.08
69084;SHT31;56185;48.526;9.044;2022-10-10T06:17:54;11.98;82.73
69084;SHT31;56185;48.526;9.044;2022-10-10T06:20:19;11.98;83.03
69084;SHT31;56185;48.526;9.044;2022-10-10T06:22:44;11.95;83.33
69084;SHT31;56185;48.526;9.044;2022-10-10T06:25:09;12.05;82.80
69084;SHT31;56185;48.526;9.044;2022-10-10T06:27:35;12.09;82.87
69084;SHT31;56185;48.526;9.044;2022-10-10T06:30:00;12.06;82.52
69084;SHT31;56185;48.526;9.044;2022-10-10T06:32:25;12.12;82.85
69084;SHT31;56185;48.526;9.044;2022-10-10T06:34:50;12.22;82.52
69084;SHT31;56185;48.526;9.044;2022-10-10T06:37:16;12.29;82.20
69084;SHT31;56185;48.526;9.044;2022-10-10T06:39:41;12.29;82.55
69084;SHT31;56185;48.526;9.044;2022-10-10T06:42:06;12.20;82.32
69084;SHT31;56185;48.526;9.044;2022-10-10T06:44:31;12.27;82.77
69084;SHT31;56185;48.526;9.044;2022-10-10T06:46:57;12.40;82.60
69084;SHT31;56185;48.526;9.044;2022-10-10T06:49:22;12.48;82.22
69084;SHT31;56185;48.526;9.044;2022-10-10T06:51:47;12.63;81.32
69084;SHT31;56185;48.526;9.044;2022-10-10T06:54:12;12.60;81.43
69084;SHT31;56185;48.526;9.044;2022-10-10T06:56:38;12.61;81.69
69084;SHT31;56185;48.526;9.044;2022-10-10T06:59:03;12.61;81.71
69084;SHT31;56185;48.526;9.044;2022-10-10T07:01:28;12.77;81.17
69084;SHT31;56185;48.526;9.044;2022-10-10T07:03:53;12.77;80.95
69084;SHT31;56185;48.526;9.044;2022-10-10T07:06:19;12.74;81.18
69084;SHT31;56185;48.526;9.044;2022-10-10T07:08:45;12.68;81.78
69084;SHT31;56185;48.526;9.044;2022-10-10T07:11:10;12.74;81.32
69084;SHT31;56185;48.526;9.044;2022-10-10T07:13:36;12.78;81.34
69084;SHT31;56185;48.526;9.044;2022-10-10T07:16:02;12.76;81.46
69084;SHT31;56185;48.526;9.044;2022-10-10T07:18:28;12.78;81.64
69084;SHT31;56185;48.526;9.044;2022-10-10T07:20:57;12.89;81.24
69084;SHT31;56185;48.526;9.044;2022-10-10T07:23:24;12.83;81.42
69084;SHT31;56185;48.526;9.044;2022-10-10T07:25:49;12.95;81.86
69084;SHT31;56185;48.526;9.044;2022-10-10T07:28:15;12.98;82.13
69084;SHT31;56185;48.526;9.044;2022-10-10T07:30:41;13.01;81.81
69084;SHT31;56185;48.526;9.044;2022-10-10T07:33:07;12.98;81.39
69084;SHT31;56185;48.526;9.044;2022-10-10T07:35:32;12.97;81.52
69084;SHT31;56185;48.526;9.044;2022-10-10T07:37:57;12.95;81.89
69084;SHT31;56185;48.526;9.044;2022-10-10T07:40:23;12.99;81.59
69084;SHT31;56185;48.526;9.044;2022-10-10T07:42:48;13.01;81.60
69084;SHT31;56185;48.526;9.044;2022-10-10T07:45:14;12.99;81.74
69084;SHT31;56185;48.526;9.044;2022-10-10T07:47:39;13.08;81.26
69084;SHT31;56185;48.526;9.044;2022-10-10T07:50:05;13.09;81.39
69084;SHT31;56185;48.526;9.044;2022-10-10T07:52:31;13.16;81.98
69084;SHT31;56185;48.526;9.044;2022-10-10T07:54:56;13.12;81.70
69084;SHT31;56185;48.526;9.044;2022-10-10T07:57:22;13.16;81.16
69084;SHT31;56185;48.526;9.044;2022-10-10T07:59:47;13.28;81.80
69084;SHT31;56185;48.526;9.044;2022-10-10T08:02:12;13.28;80.84
69084;SHT31;56185;48.526;9.044;2022-10-10T08:04:38;13.25;81.03
69084;SHT31;56185;48.526;9.044;2022-10-10T08:07:03;13.25;81.02
69084;SHT31;56185;48.526;9.044;2022-10-10T08:09:28;13.23;81.58
69084;SHT31;56185;48.526;9.044;2022-10-10T08:11:53;13.32;80.83
69084;SHT31;56185;48.526;9.044;2022-10-10T08:14:18;13.34;80.83
69084;SHT31;56185;48.526;9.044;2022-10-10T08:16:44;13.36;80.69
69084;SHT31;56185;48.526;9.044;2022-10-10T08:19:09;13.42;81.18
69084;SHT31;56185;48.526;9.044;2022-10-10T08:21:34;13.39;81.64
69084;SHT31;56185;48.526;9.044;2022-10-10T08:23:59;13.39;80.91
69084;SHT31;56185;48.526;9.044;2022-10-10T08:26:25;13.46;80.23
69084;SHT31;56185;48.526;9.044;2022-10-10T08:28:50;13.53;81.14
69084;SHT31;56185;48.526;9.044;2022-10-10T08:31:17;13.56;81.05
69084;SHT31;56185;48.526;9.044;2022-10-10T08:33:44;13.62;81.36
69084;SHT31;56185;48.526;9.044;2022-10-10T08:36:18;13.63;80.31
69084;SHT31;56185;48.526;9.044;2022-10-10T08:38:44;13.73;80.93
69084;SHT31;56185;48.526;9.044;2022-10-10T08:43:50;13.84;80.52
69084;SHT31;56185;48.526;9.044;2022-10-10T08:46:37;13.87;79.84
69084;SHT31;56185;48.526;9.044;2022-10-10T08:51:54;14.00;80.00
69084;SHT31;56185;48.526;9.044;2022-10-10T08:54:22;14.03;79.64
69084;SHT31;56185;48.526;9.044;2022-10-10T08:56:48;14.14;79.94
69084;SHT31;56185;48.526;9.044;2022-10-10T08:59:18;14.22;79.46
69084;SHT31;56185;48.526;9.044;2022-10-10T09:01:44;14.29;78.67
69084;SHT31;56185;48.526;9.044;2022-10-10T09:04:15;14.35;78.61
69084;SHT31;56185;48.526;9.044;2022-10-10T09:07:00;14.29;79.15
69084;SHT31;56185;48.526;9.044;2022-10-10T09:09:53;14.41;78.76
69084;SHT31;56185;48.526;9.044;2022-10-10T09:15:20;14.52;78.37
69084;SHT31;56185;48.526;9.044;2022-10-10T09:21:07;14.82;78.76
69084;SHT31;56185;48.526;9.044;2022-10-10T09:23:46;15.23;77.64
69084;SHT31;56185;48.526;9.044;2022-10-10T09:26:18;15.37;76.26
69084;SHT31;56185;48.526;9.044;2022-10-10T09:28:55;15.35;76.55
69084;SHT31;56185;48.526;9.044;2022-10-10T09:34:12;15.45;76.66
69084;SHT31;56185;48.526;9.044;2022-10-10T09:36:39;15.45;77.07
69084;SHT31;56185;48.526;9.044;2022-10-10T09:39:37;15.48;77.32
69084;SHT31;56185;48.526;9.044;2022-10-10T09:42:13;15.59;76.45
69084;SHT31;56185;48.526;9.044;2022-10-10T09:44:39;15.55;77.73
69084;SHT31;56185;48.526;9.044;2022-10-10T09:47:05;15.64;77.11
69084;SHT31;56185;48.526;9.044;2022-10-10T09:49:30;15.71;77.62
69084;SHT31;56185;48.526;9.044;2022-10-10T09:51:55;15.83;77.39
69084;SHT31;56185;48.526;9.044;2022-10-10T09:54:22;16.06;77.27
69084;SHT31;56185;48.526;9.044;2022-10-10T09:56:49;16.22;76.43
69084;SHT31;56185;48.526;9.044;2022-10-10T09:59:34;16.32;76.37
69084;SHT31;56185;48.526;9.044;2022-10-10T10:02:15;16.44;75.51
69084;SHT31;56185;48.526;9.044;2022-10-10T10:04:41;16.61;75.43
69084;SHT31;56185;48.526;9.044;2022-10-10T10:10:23;16.71;74.92
69084;SHT31;56185;48.526;9.044;2022-10-10T10:12:49;16.77;74.56
69084;SHT31;56185;48.526;9.044;2022-10-10T10:15:25;16.80;74.69
69084;SHT31;56185;48.526;9.044;2022-10-10T10:20:39;16.95;74.54
69084;SHT31;56185;48.526;9.044;2022-10-10T10:23:21;17.02;74.61
69084;SHT31;56185;48.526;9.044;2022-10-10T10:26:05;17.14;73.90
69084;SHT31;56185;48.526;9.044;2022-10-10T10:28:31;17.15;74.51
69084;SHT31;56185;48.526;9.044;2022-10-10T10:31:03;17.19;73.85
69084;SHT31;56185;48.526;9.044;2022-10-10T10:33:47;17.26;74.44
69084;SHT31;56185;48.526;9.044;2022-10-10T10:42:00;17.53;73.32
69084;SHT31;56185;48.526;9.044;2022-10-10T10:47:21;17.60;73.05
69084;SHT31;56185;48.526;9.044;2022-10-10T10:53:03;17.74;73.36
69084;SHT31;56185;48.526;9.044;2022-10-10T10:55:40;17.83;73.42
69084;SHT31;56185;48.526;9.044;2022-10-10T11:06:55;18.31;70.85
69084;SHT31;56185;48.526;9.044;2022-10-10T11:09:32;18.37;72.01
69084;SHT31;56185;48.526;9.044;2022-10-10T11:17:27;18.58;71.26
69084;SHT31;56185;48.526;9.044;2022-10-10T11:19:58;18.63;71.01
69084;SHT31;56185;48.526;9.044;2022-10-10T11:22:37;18.66;70.38
69084;SHT31;56185;48.526;9.044;2022-10-10T11:25:19;18.83;71.31
69084;SHT31;56185;48.526;9.044;2022-10-10T11:27:59;18.85;68.38
69084;SHT31;56185;48.526;9.044;2022-10-10T11:30:29;18.97;68.38
69084;SHT31;56185;48.526;9.044;2022-10-10T11:32:58;19.17;68.48
69084;SHT31;56185;48.526;9.044;2022-10-10T11:35:45;19.32;67.90
69084;SHT31;56185;48.526;9.044;2022-10-10T11:40:50;19.64;67.22
69084;SHT31;56185;48.526;9.044;2022-10-10T11:43:50;19.67;62.77
69084;SHT31;56185;48.526;9.044;2022-10-10T11:46:28;19.88;63.95
69084;SHT31;56185;48.526;9.044;2022-10-10T11:54:34;20.37;63.54
69084;SHT31;56185;48.526;9.044;2022-10-10T11:57:07;20.50;62.01
69084;SHT31;56185;48.526;9.044;2022-10-10T11:59:40;20.71;61.03
69084;SHT31;56185;48.526;9.044;2022-10-10T12:02:25;20.74;61.36
69084;SHT31;56185;48.526;9.044;2022-10-10T12:04:52;20.85;61.06
69084;SHT31;56185;48.526;9.044;2022-10-10T12:07:36;20.96;58.44
69084;SHT31;56185;48.526;9.044;2022-10-10T12:10:20;21.04;58.33
69084;SHT31;56185;48.526;9.044;2022-10-10T12:12:48;21.19;56.09
69084;SHT31;56185;48.526;9.044;2022-10-10T12:15:27;21.16;56.62
69084;SHT31;56185;48.526;9.044;2022-10-10T12:17:53;21.26;58.16
69084;SHT31;56185;48.526;9.044;2022-10-10T12:23:08;21.38;56.13
69084;SHT31;56185;48.526;9.044;2022-10-10T12:25:38;21.55;56.26
69084;SHT31;56185;48.526;9.044;2022-10-10T12:33:20;21.76;55.25
69084;SHT31;56185;48.526;9.044;2022-10-10T12:35:45;21.69;54.62
69084;SHT31;56185;48.526;9.044;2022-10-10T12:38:20;21.79;54.28
69084;SHT31;56185;48.526;9.044;2022-10-10T12:44:50;21.79;54.19
69084;SHT31;56185;48.526;9.044;2022-10-10T12:46:44;21.98;53.34
69084;SHT31;56185;48.526;9.044;2022-10-10T12:49:19;22.11;52.99
69084;SHT31;56185;48.526;9.044;2022-10-10T12:54:27;22.08;52.55
69084;SHT31;56185;48.526;9.044;2022-10-10T12:59:45;22.13;51.92
69084;SHT31;56185;48.526;9.044;2022-10-10T13:02:17;22.13;51.96
69084;SHT31;56185;48.526;9.044;2022-10-10T13:04:45;22.31;51.30
69084;SHT31;56185;48.526;9.044;2022-10-10T13:07:15;22.42;50.86
69084;SHT31;56185;48.526;9.044;2022-10-10T13:09:44;22.42;50.35
69084;SHT31;56185;48.526;9.044;2022-10-10T13:12:37;22.59;49.27
69084;SHT31;56185;48.526;9.044;2022-10-10T13:15:17;22.68;49.43
69084;SHT31;56185;48.526;9.044;2022-10-10T13:17:42;22.65;49.07
69084;SHT31;56185;48.526;9.044;2022-10-10T13:20:25;22.66;49.05
69084;SHT31;56185;48.526;9.044;2022-10-10T13:22:51;22.58;48.93
69084;SHT31;56185;48.526;9.044;2022-10-10T13:25:17;22.35;48.63
69084;SHT31;56185;48.526;9.044;2022-10-10T13:27:42;22.18;47.83
69084;SHT31;56185;48.526;9.044;2022-10-10T13:30:17;21.93;48.39
69084;SHT31;56185;48.526;9.044;2022-10-10T13:32:43;21.83;47.47
69084;SHT31;56185;48.526;9.044;2022-10-10T13:35:14;21.87;47.72
69084;SHT31;56185;48.526;9.044;2022-10-10T13:37:41;21.53;47.45
69084;SHT31;56185;48.526;9.044;2022-10-10T13:40:13;21.42;48.24
69084;SHT31;56185;48.526;9.044;2022-10-10T13:42:39;21.46;48.42
69084;SHT31;56185;48.526;9.044;2022-10-10T13:47:55;21.50;48.73
69084;SHT31;56185;48.526;9.044;2022-10-10T13:50:25;21.87;48.81
69084;SHT31;56185;48.526;9.044;2022-10-10T13:53:23;21.93;47.72
69084;SHT31;56185;48.526;9.044;2022-10-10T13:55:50;21.93;48.03
69084;SHT31;56185;48.526;9.044;2022-10-10T13:58:21;22.21;47.64
69084;SHT31;56185;48.526;9.044;2022-10-10T14:01:00;22.41;47.10
69084;SHT31;56185;48.526;9.044;2022-10-10T14:03:26;22.56;44.85
69084;SHT31;56185;48.526;9.044;2022-10-10T14:05:53;22.75;44.40
69084;SHT31;56185;48.526;9.044;2022-10-10T14:08:22;22.83;43.51
69084;SHT31;56185;48.526;9.044;2022-10-10T14:11:04;22.99;44.03
69084;SHT31;56185;48.526;9.044;2022-10-10T14:13:30;22.93;42.96
69084;SHT31;56185;48.526;9.044;2022-10-10T14:16:22;22.92;41.98
69084;SHT31;56185;48.526;9.044;2022-10-10T14:18:48;22.66;44.12
69084;SHT31;56185;48.526;9.044;2022-10-10T14:21:13;22.88;44.30
69084;SHT31;56185;48.526;9.044;2022-10-10T14:23:39;22.89;44.55
69084;SHT31;56185;48.526;9.044;2022-10-10T14:26:06;22.81;44.18
69084;SHT31;56185;48.526;9.044;2022-10-10T14:28:32;22.76;44.47
69084;SHT31;56185;48.526;9.044;2022-10-10T14:30:58;22.77;45.06
69084;SHT31;56185;48.526;9.044;2022-10-10T14:33:24;22.75;44.27
69084;SHT31;56185;48.526;9.044;2022-10-10T14:35:51;22.73;45.53
69084;SHT31;56185;48.526;9.044;2022-10-10T14:38:18;22.75;45.03
69084;SHT31;56185;48.526;9.044;2022-10-10T14:40:45;22.65;44.72
69084;SHT31;56185;48.526;9.044;2022-10-10T14:43:11;22.72;45.48
69084;SHT31;56185;48.526;9.044;2022-10-10T14:45:36;22.81;45.17
69084;SHT31;56185;48.526;9.044;2022-10-10T14:48:02;22.85;44.91
69084;SHT31;56185;48.526;9.044;2022-10-10T14:50:31;22.85;45.61
69084;SHT31;56185;48.526;9.044;2022-10-10T14:52:57;22.73;46.20
69084;SHT31;56185;48.526;9.044;2022-10-10T14:55:23;22.69;45.56
69084;SHT31;56185;48.526;9.044;2022-10-10T14:57:48;22.59;45.08
69084;SHT31;56185;48.526;9.044;2022-10-10T15:00:18;22.55;46.39
69084;SHT31;56185;48.526;9.044;2022-10-10T15:02:44;22.48;46.76
69084;SHT31;56185;48.526;9.044;2022-10-10T15:05:10;22.40;47.23
69084;SHT31;56185;48.526;9.044;2022-10-10T15:07:35;22.35;47.83
69084;SHT31;56185;48.526;9.044;2022-10-10T15:10:01;22.15;47.87
69084;SHT31;56185;48.526;9.044;2022-10-10T15:12:26;22.22;48.20
69084;SHT31;56185;48.526;9.044;2022-10-10T15:14:51;22.27;49.74
69084;SHT31;56185;48.526;9.044;2022-10-10T15:17:17;22.31;50.66
69084;SHT31;56185;48.526;9.044;2022-10-10T15:19:42;22.32;50.37
69084;SHT31;56185;48.526;9.044;2022-10-10T15:22:07;22.32;48.02
69084;SHT31;56185;48.526;9.044;2022-10-10T15:24:33;22.37;48.80
69084;SHT31;56185;48.526;9.044;2022-10-10T15:26:58;22.44;47.95
69084;SHT31;56185;48.526;9.044;2022-10-10T15:29:24;22.32;49.68
69084;SHT31;56185;48.526;9.044;2022-10-10T15:31:49;22.38;49.03
69084;SHT31;56185;48.526;9.044;2022-10-10T15:34:14;22.40;48.85
69084;SHT31;56185;48.526;9.044;2022-10-10T15:36:40;22.30;50.23
69084;SHT31;56185;48.526;9.044;2022-10-10T15:39:05;22.14;51.38
69084;SHT31;56185;48.526;9.044;2022-10-10T15:41:30;22.03;51.48
69084;SHT31;56185;48.526;9.044;2022-10-10T15:43:56;21.93;53.29
69084;SHT31;56185;48.526;9.044;2022-10-10T15:46:24;21.82;53.78
69084;SHT31;56185;48.526;9.044;2022-10-10T15:48:49;21.69;54.18
69084;SHT31;56185;48.526;9.044;2022-10-10T15:51:15;21.56;54.78
69084;SHT31;56185;48.526;9.044;2022-10-10T15:53:40;21.45;55.65
69084;SHT31;56185;48.526;9.044;2022-10-10T15:56:12;21.32;56.06
69084;SHT31;56185;48.526;9.044;2022-10-10T15:58:38;21.16;56.48
69084;SHT31;56185;48.526;9.044;2022-10-10T16:01:12;21.04;56.37
69084;SHT31;56185;48.526;9.044;2022-10-10T16:03:38;20.92;57.29
69084;SHT31;56185;48.526;9.044;2022-10-10T16:06:04;20.85;57.41
69084;SHT31;56185;48.526;9.044;2022-10-10T16:08:29;20.80;57.85
69084;SHT31;56185;48.526;9.044;2022-10-10T16:10:54;20.68;58.16
69084;SHT31;56185;48.526;9.044;2022-10-10T16:13:20;20.63;58.51
69084;SHT31;56185;48.526;9.044;2022-10-10T16:15:58;20.48;57.90
69084;SHT31;56185;48.526;9.044;2022-10-10T16:18:24;20.44;57.55
69084;SHT31;56185;48.526;9.044;2022-10-10T16:20:49;20.26;58.54
69084;SHT31;56185;48.526;9.044;2022-10-10T16:23:14;20.20;58.60
69084;SHT31;56185;48.526;9.044;2022-10-10T16:25:39;20.10;58.13
69084;SHT31;56185;48.526;9.044;2022-10-10T16:28:05;20.04;58.70
69084;SHT31;56185;48.526;9.044;2022-10-10T16:30:30;19.96;58.78
69084;SHT31;56185;48.526;9.044;2022-10-10T16:32:55;19.86;58.87
69084;SHT31;56185;48.526;9.044;2022-10-10T16:35:20;19.76;58.69
69084;SHT31;56185;48.526;9.044;2022-10-10T16:37:46;19.69;59.26
69084;SHT31;56185;48.526;9.044;2022-10-10T16:40:11;19.55;59.15
69084;SHT31;56185;48.526;9.044;2022-10-10T16:42:36;19.55;59.34
69084;SHT31;56185;48.526;9.044;2022-10-10T16:45:02;19.46;59.63
69084;SHT31;56185;48.526;9.044;2022-10-10T16:47:28;19.38;59.87
69084;SHT31;56185;48.526;9.044;2022-10-10T16:49:53;19.24;59.46
69084;SHT31;56185;48.526;9.044;2022-10-10T16:52:18;19.17;60.55
69084;SHT31;56185;48.526;9.044;2022-10-10T16:54:43;19.00;60.76
69084;SHT31;56185;48.526;9.044;2022-10-10T16:57:09;18.90;61.07
69084;SHT31;56185;48.526;9.044;2022-10-10T16:59:34;18.83;61.19
69084;SHT31;56185;48.526;9.044;2022-10-10T17:01:59;18.80;61.75
69084;SHT31;56185;48.526;9.044;2022-10-10T17:04:24;18.75;61.55
69084;SHT31;56185;48.526;9.044;2022-10-10T17:06:49;18.73;61.68
69084;SHT31;56185;48.526;9.044;2022-10-10T17:09:15;18.69;61.96
69084;SHT31;56185;48.526;9.044;2022-10-10T17:11:40;18.65;62.53